sensor_id;sensor_type;location;lat;lon;timestamp;P1;durP1;ratioP1;P2;durP2;ratioP2
61978;SDS011;47938;48.176;16.414;2022-11-15T00:01:42;73.50;;;33.30;;
61978;SDS011;47938;48.176;16.414;2022-11-15T00:04:08;67.80;;;31.65;;
61978;SDS011;47938;48.176;16.414;2022-11-15T00:06:34;70.03;;;32.92;;
61978;SDS011;47938;48.176;16.414;2022-11-15T00:09:00;73.68;;;33.00;;
61978;SDS011;47938;48.176;16.414;2022-11-15T00:11:26;88.90;;;33.33;;
61978;SDS011;47938;48.176;16.414;2022-11-15T00:13:56;72.43;;;32.53;;
61978;SDS011;47938;48.176;16.414;2022-11-15T00:16:22;83.60;;;33.53;;
61978;SDS011;47938;48.176;16.414;2022-11-15T00:18:48;73.25;;;31.73;;
61978;SDS011;47938;48.176;16.414;2022-11-15T00:21:14;76.65;;;34.35;;
61978;SDS011;47938;48.176;16.414;2022-11-15T00:23:41;75.63;;;32.38;;
61978;SDS011;47938;48.176;16.414;2022-11-15T00:26:07;76.70;;;33.20;;
61978;SDS011;47938;48.176;16.414;2022-11-15T00:28:36;78.65;;;31.98;;
61978;SDS011;47938;48.176;16.414;2022-11-15T00:31:01;76.80;;;32.67;;
61978;SDS011;47938;48.176;16.414;2022-11-15T00:33:28;75.68;;;31.95;;
61978;SDS011;47938;48.176;16.414;2022-11-15T00:35:58;73.35;;;31.15;;
61978;SDS011;47938;48.176;16.414;2022-11-15T00:38:30;78.20;;;32.95;;
61978;SDS011;47938;48.176;16.414;2022-11-15T00:40:59;75.40;;;33.08;;
61978;SDS011;47938;48.176;16.414;2022-11-15T00:43:26;80.50;;;32.67;;
61978;SDS011;47938;48.176;16.414;2022-11-15T00:45:51;73.07;;;32.58;;
61978;SDS011;47938;48.176;16.414;2022-11-15T00:48:17;82.47;;;33.40;;
61978;SDS011;47938;48.176;16.414;2022-11-15T00:50:43;73.72;;;31.85;;
61978;SDS011;47938;48.176;16.414;2022-11-15T00:53:09;85.53;;;34.42;;
61978;SDS011;47938;48.176;16.414;2022-11-15T00:55:35;77.82;;;32.97;;
61978;SDS011;47938;48.176;16.414;2022-11-15T00:58:01;78.30;;;32.38;;
61978;SDS011;47938;48.176;16.414;2022-11-15T01:00:27;78.30;;;33.70;;
61978;SDS011;47938;48.176;16.414;2022-11-15T01:02:53;76.32;;;32.15;;
61978;SDS011;47938;48.176;16.414;2022-11-15T01:05:19;71.07;;;32.13;;
61978;SDS011;47938;48.176;16.414;2022-11-15T01:07:45;73.78;;;32.63;;
61978;SDS011;47938;48.176;16.414;2022-11-15T01:10:10;70.43;;;31.73;;
61978;SDS011;47938;48.176;16.414;2022-11-15T01:12:36;64.45;;;30.55;;
61978;SDS011;47938;48.176;16.414;2022-11-15T01:15:02;73.68;;;30.23;;
61978;SDS011;47938;48.176;16.414;2022-11-15T01:17:29;71.82;;;28.98;;
61978;SDS011;47938;48.176;16.414;2022-11-15T01:19:55;61.97;;;27.60;;
61978;SDS011;47938;48.176;16.414;2022-11-15T01:22:21;61.00;;;28.92;;
61978;SDS011;47938;48.176;16.414;2022-11-15T01:24:47;70.20;;;29.45;;
61978;SDS011;47938;48.176;16.414;2022-11-15T01:27:14;72.45;;;30.08;;
61978;SDS011;47938;48.176;16.414;2022-11-15T01:29:40;62.22;;;29.17;;
61978;SDS011;47938;48.176;16.414;2022-11-15T01:32:05;62.58;;;28.73;;
61978;SDS011;47938;48.176;16.414;2022-11-15T01:34:31;65.38;;;28.90;;
61978;SDS011;47938;48.176;16.414;2022-11-15T01:36:57;60.95;;;28.13;;
61978;SDS011;47938;48.176;16.414;2022-11-15T01:39:23;72.40;;;28.63;;
61978;SDS011;47938;48.176;16.414;2022-11-15T01:41:48;65.60;;;28.40;;
61978;SDS011;47938;48.176;16.414;2022-11-15T01:46:59;57.85;;;27.95;;
61978;SDS011;47938;48.176;16.414;2022-11-15T01:49:28;64.57;;;27.40;;
61978;SDS011;47938;48.176;16.414;2022-11-15T01:51:57;59.28;;;26.20;;
61978;SDS011;47938;48.176;16.414;2022-11-15T01:54:25;57.17;;;28.50;;
61978;SDS011;47938;48.176;16.414;2022-11-15T01:56:58;59.70;;;27.30;;
61978;SDS011;47938;48.176;16.414;2022-11-15T01:59:26;56.17;;;27.75;;
61978;SDS011;47938;48.176;16.414;2022-11-15T02:01:53;57.42;;;27.80;;
61978;SDS011;47938;48.176;16.414;2022-11-15T02:04:20;56.63;;;28.60;;
61978;SDS011;47938;48.176;16.414;2022-11-15T02:06:52;61.35;;;28.50;;
61978;SDS011;47938;48.176;16.414;2022-11-15T02:09:18;60.72;;;29.00;;
61978;SDS011;47938;48.176;16.414;2022-11-15T02:11:44;60.75;;;27.80;;
61978;SDS011;47938;48.176;16.414;2022-11-15T02:14:11;70.38;;;29.67;;
61978;SDS011;47938;48.176;16.414;2022-11-15T02:16:44;70.78;;;31.08;;
61978;SDS011;47938;48.176;16.414;2022-11-15T02:24:46;66.47;;;30.00;;
61978;SDS011;47938;48.176;16.414;2022-11-15T02:36:00;57.20;;;28.27;;
61978;SDS011;47938;48.176;16.414;2022-11-15T02:38:47;52.88;;;26.50;;
61978;SDS011;47938;48.176;16.414;2022-11-15T02:41:50;53.55;;;26.45;;
61978;SDS011;47938;48.176;16.414;2022-11-15T02:44:21;57.60;;;27.25;;
61978;SDS011;47938;48.176;16.414;2022-11-15T02:46:58;61.58;;;26.67;;
61978;SDS011;47938;48.176;16.414;2022-11-15T02:49:28;54.67;;;27.80;;
61978;SDS011;47938;48.176;16.414;2022-11-15T02:51:57;63.25;;;27.63;;
61978;SDS011;47938;48.176;16.414;2022-11-15T02:54:24;56.65;;;26.58;;
61978;SDS011;47938;48.176;16.414;2022-11-15T02:56:56;56.00;;;27.88;;
61978;SDS011;47938;48.176;16.414;2022-11-15T03:13:28;55.80;;;26.77;;
61978;SDS011;47938;48.176;16.414;2022-11-15T03:16:17;65.53;;;28.75;;
61978;SDS011;47938;48.176;16.414;2022-11-15T03:18:51;61.90;;;25.75;;
61978;SDS011;47938;48.176;16.414;2022-11-15T03:21:20;61.85;;;28.42;;
61978;SDS011;47938;48.176;16.414;2022-11-15T03:23:48;57.13;;;27.13;;
61978;SDS011;47938;48.176;16.414;2022-11-15T03:26:16;58.22;;;26.05;;
61978;SDS011;47938;48.176;16.414;2022-11-15T03:31:33;50.28;;;25.17;;
61978;SDS011;47938;48.176;16.414;2022-11-15T03:34:01;58.30;;;28.05;;
61978;SDS011;47938;48.176;16.414;2022-11-15T03:36:32;56.27;;;25.97;;
61978;SDS011;47938;48.176;16.414;2022-11-15T03:39:00;57.35;;;26.45;;
61978;SDS011;47938;48.176;16.414;2022-11-15T03:42:05;57.47;;;25.73;;
61978;SDS011;47938;48.176;16.414;2022-11-15T03:47:21;55.00;;;26.40;;
61978;SDS011;47938;48.176;16.414;2022-11-15T03:49:59;57.45;;;27.13;;
61978;SDS011;47938;48.176;16.414;2022-11-15T03:52:33;59.88;;;26.40;;
61978;SDS011;47938;48.176;16.414;2022-11-15T03:55:00;69.10;;;27.77;;
61978;SDS011;47938;48.176;16.414;2022-11-15T03:57:27;63.60;;;27.80;;
61978;SDS011;47938;48.176;16.414;2022-11-15T03:59:53;60.65;;;28.00;;
61978;SDS011;47938;48.176;16.414;2022-11-15T04:02:19;63.13;;;27.35;;
61978;SDS011;47938;48.176;16.414;2022-11-15T04:04:45;70.38;;;29.77;;
61978;SDS011;47938;48.176;16.414;2022-11-15T04:07:10;67.00;;;29.30;;
61978;SDS011;47938;48.176;16.414;2022-11-15T04:09:36;72.40;;;30.45;;
61978;SDS011;47938;48.176;16.414;2022-11-15T04:12:02;80.82;;;31.10;;
61978;SDS011;47938;48.176;16.414;2022-11-15T04:14:27;97.45;;;33.15;;
61978;SDS011;47938;48.176;16.414;2022-11-15T04:16:53;77.68;;;31.95;;
61978;SDS011;47938;48.176;16.414;2022-11-15T04:19:19;81.03;;;33.10;;
61978;SDS011;47938;48.176;16.414;2022-11-15T04:21:44;81.72;;;31.50;;
61978;SDS011;47938;48.176;16.414;2022-11-15T04:24:10;88.22;;;33.53;;
61978;SDS011;47938;48.176;16.414;2022-11-15T04:26:35;85.47;;;32.50;;
61978;SDS011;47938;48.176;16.414;2022-11-15T04:29:01;110.10;;;33.53;;
61978;SDS011;47938;48.176;16.414;2022-11-15T04:31:27;89.30;;;32.30;;
61978;SDS011;47938;48.176;16.414;2022-11-15T04:33:53;86.15;;;33.30;;
61978;SDS011;47938;48.176;16.414;2022-11-15T04:36:19;97.18;;;33.40;;
61978;SDS011;47938;48.176;16.414;2022-11-15T04:38:45;87.70;;;33.00;;
61978;SDS011;47938;48.176;16.414;2022-11-15T04:41:11;85.90;;;32.38;;
61978;SDS011;47938;48.176;16.414;2022-11-15T04:43:37;76.75;;;32.50;;
61978;SDS011;47938;48.176;16.414;2022-11-15T04:46:02;83.72;;;31.15;;
61978;SDS011;47938;48.176;16.414;2022-11-15T04:48:28;98.57;;;32.75;;
61978;SDS011;47938;48.176;16.414;2022-11-15T04:50:53;88.88;;;32.85;;
61978;SDS011;47938;48.176;16.414;2022-11-15T04:53:19;88.03;;;32.45;;
61978;SDS011;47938;48.176;16.414;2022-11-15T04:55:45;82.68;;;30.65;;
61978;SDS011;47938;48.176;16.414;2022-11-15T04:58:11;79.10;;;31.60;;
61978;SDS011;47938;48.176;16.414;2022-11-15T05:00:37;97.93;;;32.67;;
61978;SDS011;47938;48.176;16.414;2022-11-15T05:03:02;90.57;;;31.55;;
61978;SDS011;47938;48.176;16.414;2022-11-15T05:05:28;86.45;;;34.13;;
61978;SDS011;47938;48.176;16.414;2022-11-15T05:07:53;91.40;;;33.13;;
61978;SDS011;47938;48.176;16.414;2022-11-15T05:10:19;88.93;;;33.85;;
61978;SDS011;47938;48.176;16.414;2022-11-15T05:12:45;97.47;;;34.70;;
61978;SDS011;47938;48.176;16.414;2022-11-15T05:15:11;95.38;;;32.42;;
61978;SDS011;47938;48.176;16.414;2022-11-15T05:17:37;105.15;;;34.47;;
61978;SDS011;47938;48.176;16.414;2022-11-15T05:20:03;96.13;;;33.50;;
61978;SDS011;47938;48.176;16.414;2022-11-15T05:22:28;96.30;;;33.42;;
61978;SDS011;47938;48.176;16.414;2022-11-15T05:24:54;86.90;;;32.72;;
61978;SDS011;47938;48.176;16.414;2022-11-15T05:27:20;81.28;;;31.02;;
61978;SDS011;47938;48.176;16.414;2022-11-15T05:29:45;78.90;;;32.97;;
61978;SDS011;47938;48.176;16.414;2022-11-15T05:32:11;77.00;;;30.95;;
61978;SDS011;47938;48.176;16.414;2022-11-15T05:34:37;88.90;;;31.48;;
61978;SDS011;47938;48.176;16.414;2022-11-15T05:37:03;74.90;;;30.25;;
61978;SDS011;47938;48.176;16.414;2022-11-15T05:39:29;74.10;;;31.98;;
61978;SDS011;47938;48.176;16.414;2022-11-15T05:41:55;74.78;;;29.25;;
61978;SDS011;47938;48.176;16.414;2022-11-15T05:44:31;73.65;;;31.05;;
61978;SDS011;47938;48.176;16.414;2022-11-15T05:46:57;69.85;;;31.00;;
61978;SDS011;47938;48.176;16.414;2022-11-15T05:49:24;71.82;;;30.60;;
61978;SDS011;47938;48.176;16.414;2022-11-15T05:51:54;67.70;;;30.45;;
61978;SDS011;47938;48.176;16.414;2022-11-15T05:54:21;69.78;;;28.75;;
61978;SDS011;47938;48.176;16.414;2022-11-15T05:56:48;79.43;;;30.75;;
61978;SDS011;47938;48.176;16.414;2022-11-15T05:59:14;87.47;;;32.45;;
61978;SDS011;47938;48.176;16.414;2022-11-15T06:01:40;97.00;;;34.03;;
61978;SDS011;47938;48.176;16.414;2022-11-15T06:04:07;86.93;;;33.85;;
61978;SDS011;47938;48.176;16.414;2022-11-15T06:06:32;100.88;;;34.17;;
61978;SDS011;47938;48.176;16.414;2022-11-15T06:08:58;91.40;;;34.53;;
61978;SDS011;47938;48.176;16.414;2022-11-15T06:11:23;90.40;;;34.88;;
61978;SDS011;47938;48.176;16.414;2022-11-15T06:13:49;96.32;;;33.35;;
61978;SDS011;47938;48.176;16.414;2022-11-15T06:16:15;94.15;;;34.33;;
61978;SDS011;47938;48.176;16.414;2022-11-15T06:18:40;92.53;;;33.85;;
61978;SDS011;47938;48.176;16.414;2022-11-15T06:21:06;93.82;;;34.25;;
61978;SDS011;47938;48.176;16.414;2022-11-15T06:23:32;105.30;;;36.25;;
61978;SDS011;47938;48.176;16.414;2022-11-15T06:25:59;110.45;;;35.00;;
61978;SDS011;47938;48.176;16.414;2022-11-15T06:28:30;95.80;;;34.45;;
61978;SDS011;47938;48.176;16.414;2022-11-15T06:31:01;97.75;;;32.42;;
61978;SDS011;47938;48.176;16.414;2022-11-15T06:33:31;93.22;;;34.65;;
61978;SDS011;47938;48.176;16.414;2022-11-15T06:36:03;93.13;;;33.03;;
61978;SDS011;47938;48.176;16.414;2022-11-15T06:38:31;90.25;;;32.78;;
61978;SDS011;47938;48.176;16.414;2022-11-15T06:41:03;114.32;;;33.78;;
61978;SDS011;47938;48.176;16.414;2022-11-15T06:43:30;94.85;;;32.85;;
61978;SDS011;47938;48.176;16.414;2022-11-15T06:45:59;88.97;;;32.60;;
61978;SDS011;47938;48.176;16.414;2022-11-15T06:48:26;94.10;;;33.30;;
61978;SDS011;47938;48.176;16.414;2022-11-15T06:50:52;107.47;;;36.40;;
61978;SDS011;47938;48.176;16.414;2022-11-15T06:53:19;108.30;;;36.45;;
61978;SDS011;47938;48.176;16.414;2022-11-15T06:55:44;138.32;;;38.15;;
61978;SDS011;47938;48.176;16.414;2022-11-15T06:58:10;144.30;;;38.80;;
61978;SDS011;47938;48.176;16.414;2022-11-15T07:00:36;106.72;;;36.92;;
61978;SDS011;47938;48.176;16.414;2022-11-15T07:03:01;126.50;;;37.35;;
61978;SDS011;47938;48.176;16.414;2022-11-15T07:05:27;118.68;;;39.53;;
61978;SDS011;47938;48.176;16.414;2022-11-15T07:07:53;152.52;;;38.38;;
61978;SDS011;47938;48.176;16.414;2022-11-15T07:10:20;114.40;;;38.45;;
61978;SDS011;47938;48.176;16.414;2022-11-15T07:12:47;112.50;;;38.35;;
61978;SDS011;47938;48.176;16.414;2022-11-15T07:15:13;106.57;;;36.67;;
61978;SDS011;47938;48.176;16.414;2022-11-15T07:17:39;122.32;;;39.33;;
61978;SDS011;47938;48.176;16.414;2022-11-15T07:20:05;117.88;;;38.58;;
61978;SDS011;47938;48.176;16.414;2022-11-15T07:22:31;125.32;;;37.47;;
61978;SDS011;47938;48.176;16.414;2022-11-15T07:24:57;106.43;;;36.35;;
61978;SDS011;47938;48.176;16.414;2022-11-15T07:27:23;123.57;;;40.22;;
61978;SDS011;47938;48.176;16.414;2022-11-15T07:29:48;136.07;;;38.47;;
61978;SDS011;47938;48.176;16.414;2022-11-15T07:32:14;149.02;;;40.30;;
61978;SDS011;47938;48.176;16.414;2022-11-15T07:34:40;189.32;;;39.35;;
61978;SDS011;47938;48.176;16.414;2022-11-15T07:37:05;167.60;;;39.17;;
61978;SDS011;47938;48.176;16.414;2022-11-15T07:39:31;129.90;;;37.17;;
61978;SDS011;47938;48.176;16.414;2022-11-15T07:41:56;142.80;;;39.38;;
61978;SDS011;47938;48.176;16.414;2022-11-15T07:44:22;119.25;;;40.15;;
61978;SDS011;47938;48.176;16.414;2022-11-15T07:46:48;117.18;;;40.42;;
61978;SDS011;47938;48.176;16.414;2022-11-15T07:49:13;117.10;;;39.05;;
61978;SDS011;47938;48.176;16.414;2022-11-15T07:51:39;122.53;;;39.65;;
61978;SDS011;47938;48.176;16.414;2022-11-15T07:54:04;110.50;;;38.90;;
61978;SDS011;47938;48.176;16.414;2022-11-15T07:56:30;130.60;;;40.15;;
61978;SDS011;47938;48.176;16.414;2022-11-15T07:58:56;124.35;;;40.05;;
61978;SDS011;47938;48.176;16.414;2022-11-15T08:01:21;106.70;;;37.25;;
61978;SDS011;47938;48.176;16.414;2022-11-15T08:03:47;130.85;;;40.72;;
61978;SDS011;47938;48.176;16.414;2022-11-15T08:06:12;165.57;;;42.03;;
61978;SDS011;47938;48.176;16.414;2022-11-15T08:08:38;108.60;;;38.67;;
61978;SDS011;47938;48.176;16.414;2022-11-15T08:11:03;105.43;;;38.08;;
61978;SDS011;47938;48.176;16.414;2022-11-15T08:13:29;125.13;;;39.97;;
61978;SDS011;47938;48.176;16.414;2022-11-15T08:15:58;124.72;;;39.97;;
61978;SDS011;47938;48.176;16.414;2022-11-15T08:18:25;119.50;;;39.80;;
61978;SDS011;47938;48.176;16.414;2022-11-15T08:20:50;122.43;;;39.92;;
61978;SDS011;47938;48.176;16.414;2022-11-15T08:23:16;110.75;;;37.58;;
61978;SDS011;47938;48.176;16.414;2022-11-15T08:25:42;107.88;;;36.35;;
61978;SDS011;47938;48.176;16.414;2022-11-15T08:28:07;127.53;;;36.55;;
61978;SDS011;47938;48.176;16.414;2022-11-15T08:30:35;111.88;;;33.97;;
61978;SDS011;47938;48.176;16.414;2022-11-15T08:33:03;96.57;;;34.50;;
61978;SDS011;47938;48.176;16.414;2022-11-15T08:35:29;103.00;;;34.53;;
61978;SDS011;47938;48.176;16.414;2022-11-15T08:37:55;88.00;;;33.75;;
61978;SDS011;47938;48.176;16.414;2022-11-15T08:40:21;98.22;;;34.75;;
61978;SDS011;47938;48.176;16.414;2022-11-15T08:42:46;96.75;;;34.42;;
61978;SDS011;47938;48.176;16.414;2022-11-15T08:45:12;93.80;;;34.25;;
61978;SDS011;47938;48.176;16.414;2022-11-15T08:47:38;120.35;;;36.33;;
61978;SDS011;47938;48.176;16.414;2022-11-15T08:50:04;103.60;;;34.15;;
61978;SDS011;47938;48.176;16.414;2022-11-15T08:52:30;103.13;;;34.38;;
61978;SDS011;47938;48.176;16.414;2022-11-15T08:54:56;98.65;;;35.17;;
61978;SDS011;47938;48.176;16.414;2022-11-15T08:57:22;102.57;;;38.05;;
61978;SDS011;47938;48.176;16.414;2022-11-15T08:59:47;89.05;;;36.20;;
61978;SDS011;47938;48.176;16.414;2022-11-15T09:02:13;94.07;;;34.42;;
61978;SDS011;47938;48.176;16.414;2022-11-15T09:04:40;94.47;;;34.28;;
61978;SDS011;47938;48.176;16.414;2022-11-15T09:07:06;96.93;;;36.20;;
61978;SDS011;47938;48.176;16.414;2022-11-15T09:09:32;87.40;;;34.35;;
61978;SDS011;47938;48.176;16.414;2022-11-15T09:11:57;86.43;;;35.42;;
61978;SDS011;47938;48.176;16.414;2022-11-15T09:14:23;99.70;;;36.78;;
61978;SDS011;47938;48.176;16.414;2022-11-15T09:16:49;92.75;;;36.53;;
61978;SDS011;47938;48.176;16.414;2022-11-15T09:19:14;99.65;;;35.80;;
61978;SDS011;47938;48.176;16.414;2022-11-15T09:21:40;119.03;;;38.42;;
61978;SDS011;47938;48.176;16.414;2022-11-15T09:24:05;114.30;;;35.22;;
61978;SDS011;47938;48.176;16.414;2022-11-15T09:26:31;99.47;;;35.05;;
61978;SDS011;47938;48.176;16.414;2022-11-15T09:28:57;133.07;;;36.20;;
61978;SDS011;47938;48.176;16.414;2022-11-15T09:31:22;107.13;;;35.80;;
61978;SDS011;47938;48.176;16.414;2022-11-15T09:33:48;103.72;;;36.53;;
61978;SDS011;47938;48.176;16.414;2022-11-15T09:36:14;110.78;;;36.35;;
61978;SDS011;47938;48.176;16.414;2022-11-15T09:38:40;113.90;;;36.17;;
61978;SDS011;47938;48.176;16.414;2022-11-15T09:41:09;124.18;;;38.80;;
61978;SDS011;47938;48.176;16.414;2022-11-15T09:48:59;114.50;;;35.47;;
61978;SDS011;47938;48.176;16.414;2022-11-15T09:51:36;99.40;;;36.28;;
61978;SDS011;47938;48.176;16.414;2022-11-15T09:54:09;118.97;;;36.35;;
61978;SDS011;47938;48.176;16.414;2022-11-15T10:04:27;147.48;;;37.50;;
61978;SDS011;47938;48.176;16.414;2022-11-15T10:09:55;119.15;;;38.75;;
61978;SDS011;47938;48.176;16.414;2022-11-15T10:12:30;115.75;;;38.55;;
61978;SDS011;47938;48.176;16.414;2022-11-15T10:15:03;102.78;;;37.72;;
61978;SDS011;47938;48.176;16.414;2022-11-15T10:23:19;121.68;;;38.20;;
61978;SDS011;47938;48.176;16.414;2022-11-15T10:25:46;105.35;;;38.35;;
61978;SDS011;47938;48.176;16.414;2022-11-15T10:28:22;116.22;;;37.58;;
61978;SDS011;47938;48.176;16.414;2022-11-15T10:30:58;105.22;;;37.42;;
61978;SDS011;47938;48.176;16.414;2022-11-15T10:41:18;127.70;;;38.83;;
61978;SDS011;47938;48.176;16.414;2022-11-15T10:44:32;100.55;;;37.50;;
61978;SDS011;47938;48.176;16.414;2022-11-15T10:46:33;117.30;;;36.83;;
61978;SDS011;47938;48.176;16.414;2022-11-15T10:51:45;102.25;;;38.55;;
61978;SDS011;47938;48.176;16.414;2022-11-15T10:54:23;91.88;;;37.58;;
61978;SDS011;47938;48.176;16.414;2022-11-15T10:57:03;106.32;;;37.58;;
61978;SDS011;47938;48.176;16.414;2022-11-15T10:59:32;93.95;;;38.65;;
61978;SDS011;47938;48.176;16.414;2022-11-15T11:02:01;92.68;;;35.40;;
61978;SDS011;47938;48.176;16.414;2022-11-15T11:04:26;93.10;;;35.35;;
61978;SDS011;47938;48.176;16.414;2022-11-15T11:07:01;92.72;;;36.15;;
61978;SDS011;47938;48.176;16.414;2022-11-15T11:12:00;96.90;;;35.97;;
61978;SDS011;47938;48.176;16.414;2022-11-15T11:20:10;94.85;;;36.50;;
61978;SDS011;47938;48.176;16.414;2022-11-15T11:23:13;95.15;;;34.50;;
61978;SDS011;47938;48.176;16.414;2022-11-15T11:31:22;88.60;;;34.85;;
61978;SDS011;47938;48.176;16.414;2022-11-15T11:41:58;75.35;;;30.85;;
61978;SDS011;47938;48.176;16.414;2022-11-15T11:47:50;76.80;;;32.03;;
61978;SDS011;47938;48.176;16.414;2022-11-15T11:50:25;75.40;;;32.60;;
61978;SDS011;47938;48.176;16.414;2022-11-15T11:55:28;77.60;;;34.85;;
61978;SDS011;47938;48.176;16.414;2022-11-15T12:00:40;66.18;;;30.05;;
61978;SDS011;47938;48.176;16.414;2022-11-15T12:03:12;77.80;;;33.00;;
61978;SDS011;47938;48.176;16.414;2022-11-15T12:05:53;75.18;;;33.40;;
61978;SDS011;47938;48.176;16.414;2022-11-15T12:11:13;75.43;;;32.97;;
61978;SDS011;47938;48.176;16.414;2022-11-15T12:13:40;68.03;;;31.05;;
61978;SDS011;47938;48.176;16.414;2022-11-15T12:18:49;87.32;;;34.95;;
61978;SDS011;47938;48.176;16.414;2022-11-15T12:21:41;65.57;;;31.40;;
61978;SDS011;47938;48.176;16.414;2022-11-15T12:24:38;66.10;;;31.25;;
61978;SDS011;47938;48.176;16.414;2022-11-15T12:27:44;71.22;;;33.28;;
61978;SDS011;47938;48.176;16.414;2022-11-15T12:30:20;67.20;;;32.78;;
61978;SDS011;47938;48.176;16.414;2022-11-15T12:33:13;59.55;;;30.20;;
61978;SDS011;47938;48.176;16.414;2022-11-15T12:36:03;62.97;;;29.45;;
61978;SDS011;47938;48.176;16.414;2022-11-15T12:38:59;56.15;;;30.90;;
61978;SDS011;47938;48.176;16.414;2022-11-15T12:41:33;59.35;;;28.58;;
61978;SDS011;47938;48.176;16.414;2022-11-15T12:44:00;57.58;;;29.13;;
61978;SDS011;47938;48.176;16.414;2022-11-15T12:52:09;50.90;;;27.25;;
61978;SDS011;47938;48.176;16.414;2022-11-15T13:02:20;46.83;;;25.90;;
61978;SDS011;47938;48.176;16.414;2022-11-15T13:04:49;48.05;;;26.10;;
61978;SDS011;47938;48.176;16.414;2022-11-15T13:08:00;52.90;;;28.23;;
61978;SDS011;47938;48.176;16.414;2022-11-15T13:12:52;49.60;;;27.17;;
61978;SDS011;47938;48.176;16.414;2022-11-15T13:17:49;54.85;;;29.17;;
61978;SDS011;47938;48.176;16.414;2022-11-15T13:20:18;55.40;;;28.38;;
61978;SDS011;47938;48.176;16.414;2022-11-15T13:30:40;54.30;;;30.17;;
61978;SDS011;47938;48.176;16.414;2022-11-15T13:33:31;54.40;;;29.98;;
61978;SDS011;47938;48.176;16.414;2022-11-15T13:36:03;51.33;;;29.27;;
61978;SDS011;47938;48.176;16.414;2022-11-15T13:41:00;54.30;;;31.00;;
61978;SDS011;47938;48.176;16.414;2022-11-15T13:43:44;53.63;;;29.15;;
61978;SDS011;47938;48.176;16.414;2022-11-15T13:51:29;51.95;;;28.52;;
61978;SDS011;47938;48.176;16.414;2022-11-15T13:54:20;53.20;;;28.73;;
61978;SDS011;47938;48.176;16.414;2022-11-15T13:59:34;46.58;;;25.70;;
61978;SDS011;47938;48.176;16.414;2022-11-15T14:02:12;41.80;;;27.02;;
61978;SDS011;47938;48.176;16.414;2022-11-15T14:04:48;50.13;;;26.75;;
61978;SDS011;47938;48.176;16.414;2022-11-15T14:07:20;45.92;;;27.45;;
61978;SDS011;47938;48.176;16.414;2022-11-15T14:09:47;43.55;;;27.42;;
61978;SDS011;47938;48.176;16.414;2022-11-15T14:12:24;47.15;;;28.45;;
61978;SDS011;47938;48.176;16.414;2022-11-15T14:14:54;45.78;;;27.92;;
61978;SDS011;47938;48.176;16.414;2022-11-15T14:17:21;46.95;;;28.52;;
61978;SDS011;47938;48.176;16.414;2022-11-15T14:19:59;46.28;;;29.08;;
61978;SDS011;47938;48.176;16.414;2022-11-15T14:22:26;50.88;;;29.80;;
61978;SDS011;47938;48.176;16.414;2022-11-15T14:25:07;49.97;;;30.95;;
61978;SDS011;47938;48.176;16.414;2022-11-15T14:27:33;50.70;;;31.35;;
61978;SDS011;47938;48.176;16.414;2022-11-15T14:29:59;50.60;;;30.55;;
61978;SDS011;47938;48.176;16.414;2022-11-15T14:32:28;54.15;;;32.28;;
61978;SDS011;47938;48.176;16.414;2022-11-15T14:35:02;52.47;;;31.98;;
61978;SDS011;47938;48.176;16.414;2022-11-15T14:37:29;54.75;;;33.20;;
61978;SDS011;47938;48.176;16.414;2022-11-15T14:39:56;53.83;;;32.67;;
61978;SDS011;47938;48.176;16.414;2022-11-15T14:42:22;60.55;;;33.70;;
61978;SDS011;47938;48.176;16.414;2022-11-15T14:44:48;56.80;;;34.60;;
61978;SDS011;47938;48.176;16.414;2022-11-15T14:47:14;61.97;;;33.67;;
61978;SDS011;47938;48.176;16.414;2022-11-15T14:49:40;60.63;;;34.22;;
61978;SDS011;47938;48.176;16.414;2022-11-15T14:52:39;61.95;;;36.03;;
61978;SDS011;47938;48.176;16.414;2022-11-15T14:54:58;65.10;;;33.95;;
61978;SDS011;47938;48.176;16.414;2022-11-15T14:57:24;61.40;;;36.42;;
61978;SDS011;47938;48.176;16.414;2022-11-15T14:59:50;63.97;;;38.20;;
61978;SDS011;47938;48.176;16.414;2022-11-15T15:02:17;62.25;;;35.60;;
61978;SDS011;47938;48.176;16.414;2022-11-15T15:04:44;65.22;;;36.53;;
61978;SDS011;47938;48.176;16.414;2022-11-15T15:07:10;68.80;;;36.72;;
61978;SDS011;47938;48.176;16.414;2022-11-15T15:09:36;64.15;;;35.10;;
61978;SDS011;47938;48.176;16.414;2022-11-15T15:12:01;58.08;;;35.85;;
61978;SDS011;47938;48.176;16.414;2022-11-15T15:14:27;64.22;;;36.42;;
61978;SDS011;47938;48.176;16.414;2022-11-15T15:16:53;65.10;;;36.10;;
61978;SDS011;47938;48.176;16.414;2022-11-15T15:19:18;61.60;;;34.50;;
61978;SDS011;47938;48.176;16.414;2022-11-15T15:21:44;56.95;;;33.90;;
61978;SDS011;47938;48.176;16.414;2022-11-15T15:24:15;57.40;;;34.72;;
61978;SDS011;47938;48.176;16.414;2022-11-15T15:26:41;56.22;;;32.95;;
61978;SDS011;47938;48.176;16.414;2022-11-15T15:29:07;58.53;;;34.00;;
61978;SDS011;47938;48.176;16.414;2022-11-15T15:31:32;55.85;;;32.85;;
61978;SDS011;47938;48.176;16.414;2022-11-15T15:33:58;55.55;;;32.78;;
61978;SDS011;47938;48.176;16.414;2022-11-15T15:36:23;57.97;;;34.85;;
61978;SDS011;47938;48.176;16.414;2022-11-15T15:38:49;57.25;;;32.53;;
61978;SDS011;47938;48.176;16.414;2022-11-15T15:41:15;58.20;;;32.65;;
61978;SDS011;47938;48.176;16.414;2022-11-15T15:43:41;54.15;;;33.33;;
61978;SDS011;47938;48.176;16.414;2022-11-15T15:46:09;58.55;;;32.17;;
61978;SDS011;47938;48.176;16.414;2022-11-15T15:48:37;59.80;;;32.70;;
61978;SDS011;47938;48.176;16.414;2022-11-15T15:51:02;51.95;;;31.90;;
61978;SDS011;47938;48.176;16.414;2022-11-15T15:53:28;58.20;;;32.70;;
61978;SDS011;47938;48.176;16.414;2022-11-15T15:55:54;53.97;;;30.65;;
61978;SDS011;47938;48.176;16.414;2022-11-15T15:58:19;57.05;;;31.45;;
61978;SDS011;47938;48.176;16.414;2022-11-15T16:00:45;55.38;;;31.20;;
61978;SDS011;47938;48.176;16.414;2022-11-15T16:03:11;54.88;;;30.23;;
61978;SDS011;47938;48.176;16.414;2022-11-15T16:05:36;59.50;;;33.72;;
61978;SDS011;47938;48.176;16.414;2022-11-15T16:08:02;55.20;;;30.98;;
61978;SDS011;47938;48.176;16.414;2022-11-15T16:10:29;56.65;;;32.47;;
61978;SDS011;47938;48.176;16.414;2022-11-15T16:12:58;59.00;;;32.30;;
61978;SDS011;47938;48.176;16.414;2022-11-15T16:15:25;57.03;;;31.42;;
61978;SDS011;47938;48.176;16.414;2022-11-15T16:17:53;56.65;;;31.45;;
61978;SDS011;47938;48.176;16.414;2022-11-15T16:20:41;57.53;;;31.10;;
61978;SDS011;47938;48.176;16.414;2022-11-15T16:23:08;58.53;;;32.30;;
61978;SDS011;47938;48.176;16.414;2022-11-15T16:25:37;53.58;;;32.33;;
61978;SDS011;47938;48.176;16.414;2022-11-15T16:28:15;56.33;;;31.50;;
61978;SDS011;47938;48.176;16.414;2022-11-15T16:30:42;54.47;;;30.88;;
61978;SDS011;47938;48.176;16.414;2022-11-15T16:33:08;53.78;;;30.75;;
61978;SDS011;47938;48.176;16.414;2022-11-15T16:35:34;54.28;;;30.50;;
61978;SDS011;47938;48.176;16.414;2022-11-15T16:37:59;55.13;;;29.60;;